Number First Last
Select Group
Name Bib City Age Group Place Time Pace Grp Pl Gend Pl
Ryan Turner 153 Newport, OR 23 M20-24 1 19:08 6:10 1 1
Joaquin Varo 187 Newport, OR 39 M35-39 2 21:41 6:59 1 2
Mary Gaither 151 Vancouver, WA 33 F30-34 3 23:59 7:44 1 1
Jeffrey McKay 162 Eugene, OR 54 M50-54 4 24:00 7:44 1 3
Alex Welch 188 Pacific City, OR 15 M15-19 5 25:30 8:13 1 4
Noelle Cavanaugh 182 Waldport, OR 36 F35-39 6 25:48 8:19 1 2
Nicole Rickles 192 Newport, OR 33 F30-34 7 25:56 8:22 2 3
Darron Welch 189 Pacific City, OR 49 M45-49 8 28:57 9:20 1 5
Erin Holmes 156 lincoln city, OR 38 F35-39 9 30:51 9:56 2 4
Carol Logsdon 171 NEWPORT, OR 54 F50-54 10 31:45 10:14 1 5
Marsha Eckelman 169 Newport, OR 60 F60-64 11 31:46 10:15 1 6
Tamara Baumberger 183 Newport, OR 36 F35-39 12 32:10 10:22 3 7
Susannah Hutley 173 Lebanon, OR 12 F12-14 13 32:27 10:28 1 8
Scott Hutley 174 Lebanon, OR 10 M9-11 14 32:32 10:29 1 6
Stephanie Brady 172 Lebanon, OR 36 F35-39 15 32:33 10:30 4 9
Nina Bain 170 NEWPORT, OR 12 F12-14 16 36:48 11:52 2 10
Jennifer Jones 159 Dundee, OR 49 F45-49 17 36:59 11:55 1 11
Victor Starostka 194 Pacific City, OR 74 M70+ 18 37:02 11:56 1 7
M'Kenzie Kirchner 177 Toledo, OR 14 F12-14 19 37:16 12:01 3 12
Karen Daugherty 168 Toledo, OR 52 F50-54 20 37:16 12:01 2 13
Heather Dodge 178 Otter Rock, OR 36 F35-39 21 37:30 12:05 5 14
Megan Ingalls 154 Monmouth, OR 31 F30-34 22 42:47 13:48 3 15
Jeanette Franzen 155 Oregon City, OR 31 F30-34 23 42:47 13:48 4 16
Avery Leffler 165 Milwaukie, OR 11 F9-11 24 45:27 14:39 1 17
Julie Leffler 166 Milwaukie, OR 46 F45-49 25 45:28 14:40 2 18
Jennifer Pettit 152 South Beach, OR 49 F45-49 26 49:25 15:56 3 19
Cadence Munson 158 Dundee, OR 10 F9-11 27 50:54 16:25 2 20
Achsa Davis 157 Beaverton, OR 41 F40-44 28 51:00 16:26 1 21
Gretchen Gantz 164 Newport, OR 62 F60-64 29 51:39 16:39 2 22
Kathy Starostka 193 Pacific City, OR 71 F70+ 30 53:46 17:20 1 23
Stephanie Welch 190 Pacific City, OR 47 F45-49 31 53:47 17:21 4 24
Isaak Welch 191 Pacific City, OR 18 M15-19 32 53:47 17:21 2 8
Tonya McKay 163 Eugene, OR 52 F50-54 33 01:04:34 20:49 3 25
Debbie Rief-Adams 150 Bend, OR 47 F45-49 34 01:05:09 21:01 5 26
Gway Kirchner 175 Toledo, OR 41 F40-44 35 01:15:30 24:21 2 27
D'Ann Kirchner 176 Sandy, OR 64 F60-64 36 01:15:30 24:21 3 28